sensor_id;sensor_type;location;lat;lon;timestamp;P1;durP1;ratioP1;P2;durP2;ratioP2
39956;SDS011;48483;44.640;7.494;2023-04-15T00:00:35;7.22;;;3.38;;
39956;SDS011;48483;44.640;7.494;2023-04-15T00:03:02;7.82;;;3.10;;
39956;SDS011;48483;44.640;7.494;2023-04-15T00:05:30;4.57;;;2.63;;
39956;SDS011;48483;44.640;7.494;2023-04-15T00:07:57;6.60;;;2.90;;
39956;SDS011;48483;44.640;7.494;2023-04-15T00:10:24;6.30;;;3.28;;
39956;SDS011;48483;44.640;7.494;2023-04-15T00:12:52;7.57;;;2.95;;
39956;SDS011;48483;44.640;7.494;2023-04-15T00:15:19;4.47;;;2.47;;
39956;SDS011;48483;44.640;7.494;2023-04-15T00:17:45;6.03;;;2.45;;
39956;SDS011;48483;44.640;7.494;2023-04-15T00:20:15;4.82;;;2.55;;
39956;SDS011;48483;44.640;7.494;2023-04-15T00:22:42;5.05;;;2.80;;
39956;SDS011;48483;44.640;7.494;2023-04-15T00:25:09;4.38;;;2.47;;
39956;SDS011;48483;44.640;7.494;2023-04-15T00:27:35;6.85;;;2.45;;
39956;SDS011;48483;44.640;7.494;2023-04-15T00:30:03;6.18;;;2.88;;
39956;SDS011;48483;44.640;7.494;2023-04-15T00:32:31;4.03;;;2.30;;
39956;SDS011;48483;44.640;7.494;2023-04-15T00:34:58;5.43;;;2.08;;
39956;SDS011;48483;44.640;7.494;2023-04-15T00:37:25;5.35;;;1.80;;
39956;SDS011;48483;44.640;7.494;2023-04-15T00:39:52;3.65;;;2.38;;
39956;SDS011;48483;44.640;7.494;2023-04-15T00:42:19;6.32;;;1.98;;
39956;SDS011;48483;44.640;7.494;2023-04-15T00:44:46;5.85;;;2.67;;
39956;SDS011;48483;44.640;7.494;2023-04-15T00:47:14;7.72;;;3.05;;
39956;SDS011;48483;44.640;7.494;2023-04-15T00:49:42;5.05;;;2.17;;
39956;SDS011;48483;44.640;7.494;2023-04-15T00:52:08;5.93;;;2.28;;
39956;SDS011;48483;44.640;7.494;2023-04-15T00:54:35;6.03;;;2.13;;
39956;SDS011;48483;44.640;7.494;2023-04-15T00:57:04;3.85;;;1.80;;
39956;SDS011;48483;44.640;7.494;2023-04-15T00:59:32;4.97;;;2.13;;
39956;SDS011;48483;44.640;7.494;2023-04-15T01:01:59;4.57;;;2.00;;
39956;SDS011;48483;44.640;7.494;2023-04-15T01:04:27;5.28;;;2.03;;
39956;SDS011;48483;44.640;7.494;2023-04-15T01:06:55;6.10;;;2.35;;
39956;SDS011;48483;44.640;7.494;2023-04-15T01:09:21;4.63;;;1.85;;
39956;SDS011;48483;44.640;7.494;2023-04-15T01:11:50;3.75;;;1.90;;
39956;SDS011;48483;44.640;7.494;2023-04-15T01:14:17;7.00;;;2.50;;
39956;SDS011;48483;44.640;7.494;2023-04-15T01:16:44;4.95;;;1.83;;
39956;SDS011;48483;44.640;7.494;2023-04-15T01:19:11;3.88;;;1.45;;
39956;SDS011;48483;44.640;7.494;2023-04-15T01:21:42;3.00;;;1.88;;
39956;SDS011;48483;44.640;7.494;2023-04-15T01:24:10;8.25;;;3.33;;
39956;SDS011;48483;44.640;7.494;2023-04-15T01:26:39;5.28;;;2.15;;
39956;SDS011;48483;44.640;7.494;2023-04-15T01:29:07;2.80;;;1.42;;
39956;SDS011;48483;44.640;7.494;2023-04-15T01:31:34;6.13;;;1.90;;
39956;SDS011;48483;44.640;7.494;2023-04-15T01:34:19;5.18;;;1.83;;
39956;SDS011;48483;44.640;7.494;2023-04-15T01:37:04;3.80;;;1.92;;
39956;SDS011;48483;44.640;7.494;2023-04-15T01:39:31;6.65;;;1.90;;
39956;SDS011;48483;44.640;7.494;2023-04-15T01:41:59;5.25;;;1.67;;
39956;SDS011;48483;44.640;7.494;2023-04-15T01:44:27;6.03;;;1.98;;
39956;SDS011;48483;44.640;7.494;2023-04-15T01:46:55;4.05;;;1.60;;
39956;SDS011;48483;44.640;7.494;2023-04-15T01:49:23;7.50;;;2.28;;
39956;SDS011;48483;44.640;7.494;2023-04-15T01:51:50;3.80;;;1.90;;
39956;SDS011;48483;44.640;7.494;2023-04-15T01:54:18;3.90;;;1.92;;
39956;SDS011;48483;44.640;7.494;2023-04-15T01:56:46;5.60;;;1.63;;
39956;SDS011;48483;44.640;7.494;2023-04-15T01:59:15;5.80;;;1.48;;
39956;SDS011;48483;44.640;7.494;2023-04-15T02:01:44;6.18;;;2.17;;
39956;SDS011;48483;44.640;7.494;2023-04-15T02:04:12;5.93;;;1.88;;
39956;SDS011;48483;44.640;7.494;2023-04-15T02:09:10;2.53;;;0.98;;
39956;SDS011;48483;44.640;7.494;2023-04-15T02:11:39;4.18;;;1.40;;
39956;SDS011;48483;44.640;7.494;2023-04-15T02:14:06;2.22;;;1.50;;
39956;SDS011;48483;44.640;7.494;2023-04-15T02:16:36;4.20;;;2.00;;
39956;SDS011;48483;44.640;7.494;2023-04-15T02:19:04;6.32;;;1.40;;
39956;SDS011;48483;44.640;7.494;2023-04-15T02:21:32;2.80;;;1.10;;
39956;SDS011;48483;44.640;7.494;2023-04-15T02:24:01;3.17;;;1.35;;
39956;SDS011;48483;44.640;7.494;2023-04-15T02:26:30;3.67;;;1.30;;
39956;SDS011;48483;44.640;7.494;2023-04-15T02:31:28;3.28;;;1.00;;
39956;SDS011;48483;44.640;7.494;2023-04-15T02:33:58;3.30;;;1.40;;
39956;SDS011;48483;44.640;7.494;2023-04-15T02:36:26;4.28;;;1.58;;
39956;SDS011;48483;44.640;7.494;2023-04-15T02:38:55;3.38;;;1.38;;
39956;SDS011;48483;44.640;7.494;2023-04-15T02:41:24;2.72;;;1.58;;
39956;SDS011;48483;44.640;7.494;2023-04-15T02:43:54;3.90;;;1.40;;
39956;SDS011;48483;44.640;7.494;2023-04-15T02:46:23;3.33;;;1.30;;
39956;SDS011;48483;44.640;7.494;2023-04-15T02:48:51;6.30;;;1.70;;
39956;SDS011;48483;44.640;7.494;2023-04-15T02:51:22;4.10;;;1.40;;
39956;SDS011;48483;44.640;7.494;2023-04-15T02:53:50;6.68;;;1.63;;
39956;SDS011;48483;44.640;7.494;2023-04-15T02:56:18;4.78;;;1.40;;
39956;SDS011;48483;44.640;7.494;2023-04-15T02:58:46;3.88;;;1.58;;
39956;SDS011;48483;44.640;7.494;2023-04-15T03:01:16;3.63;;;1.50;;
39956;SDS011;48483;44.640;7.494;2023-04-15T03:03:44;3.72;;;1.50;;
39956;SDS011;48483;44.640;7.494;2023-04-15T03:06:12;4.22;;;1.52;;
39956;SDS011;48483;44.640;7.494;2023-04-15T03:08:41;11.50;;;1.42;;
39956;SDS011;48483;44.640;7.494;2023-04-15T03:11:09;3.97;;;1.48;;
39956;SDS011;48483;44.640;7.494;2023-04-15T03:13:38;3.10;;;1.40;;
39956;SDS011;48483;44.640;7.494;2023-04-15T03:16:13;6.40;;;1.60;;
39956;SDS011;48483;44.640;7.494;2023-04-15T03:18:42;5.85;;;1.50;;
39956;SDS011;48483;44.640;7.494;2023-04-15T03:21:10;2.75;;;1.20;;
39956;SDS011;48483;44.640;7.494;2023-04-15T03:23:39;5.82;;;1.55;;
39956;SDS011;48483;44.640;7.494;2023-04-15T03:26:08;6.20;;;1.60;;
39956;SDS011;48483;44.640;7.494;2023-04-15T03:28:37;3.83;;;1.27;;
39956;SDS011;48483;44.640;7.494;2023-04-15T03:31:05;5.85;;;1.30;;
39956;SDS011;48483;44.640;7.494;2023-04-15T03:33:34;2.20;;;1.15;;
39956;SDS011;48483;44.640;7.494;2023-04-15T03:36:02;1.63;;;0.98;;
39956;SDS011;48483;44.640;7.494;2023-04-15T03:38:30;5.22;;;1.58;;
39956;SDS011;48483;44.640;7.494;2023-04-15T03:40:58;2.65;;;0.90;;
39956;SDS011;48483;44.640;7.494;2023-04-15T03:43:27;5.25;;;1.35;;
39956;SDS011;48483;44.640;7.494;2023-04-15T03:45:55;4.53;;;1.88;;
39956;SDS011;48483;44.640;7.494;2023-04-15T03:48:23;4.65;;;1.65;;
39956;SDS011;48483;44.640;7.494;2023-04-15T03:50:50;5.75;;;1.55;;
39956;SDS011;48483;44.640;7.494;2023-04-15T03:53:19;2.95;;;1.70;;
39956;SDS011;48483;44.640;7.494;2023-04-15T03:55:47;6.65;;;1.90;;
39956;SDS011;48483;44.640;7.494;2023-04-15T03:58:15;5.53;;;1.48;;
39956;SDS011;48483;44.640;7.494;2023-04-15T04:00:44;2.55;;;1.63;;
39956;SDS011;48483;44.640;7.494;2023-04-15T04:03:12;3.42;;;1.70;;
39956;SDS011;48483;44.640;7.494;2023-04-15T04:05:40;4.35;;;1.67;;
39956;SDS011;48483;44.640;7.494;2023-04-15T04:08:10;4.18;;;1.55;;
39956;SDS011;48483;44.640;7.494;2023-04-15T04:10:39;3.08;;;1.20;;
39956;SDS011;48483;44.640;7.494;2023-04-15T04:13:07;4.47;;;1.17;;
39956;SDS011;48483;44.640;7.494;2023-04-15T04:15:35;1.02;;;0.77;;
39956;SDS011;48483;44.640;7.494;2023-04-15T04:18:04;4.03;;;1.02;;
39956;SDS011;48483;44.640;7.494;2023-04-15T04:20:32;3.13;;;0.90;;
39956;SDS011;48483;44.640;7.494;2023-04-15T04:23:00;3.50;;;1.08;;
39956;SDS011;48483;44.640;7.494;2023-04-15T04:25:28;2.17;;;0.95;;
39956;SDS011;48483;44.640;7.494;2023-04-15T04:27:56;5.65;;;1.20;;
39956;SDS011;48483;44.640;7.494;2023-04-15T04:30:24;2.22;;;0.80;;
39956;SDS011;48483;44.640;7.494;2023-04-15T04:32:51;6.45;;;1.00;;
39956;SDS011;48483;44.640;7.494;2023-04-15T04:35:21;2.00;;;1.10;;
39956;SDS011;48483;44.640;7.494;2023-04-15T04:37:49;3.20;;;1.35;;
39956;SDS011;48483;44.640;7.494;2023-04-15T04:40:17;1.83;;;0.90;;
39956;SDS011;48483;44.640;7.494;2023-04-15T04:42:45;3.30;;;1.02;;
39956;SDS011;48483;44.640;7.494;2023-04-15T04:45:13;4.45;;;1.30;;
39956;SDS011;48483;44.640;7.494;2023-04-15T04:47:41;6.20;;;1.65;;
39956;SDS011;48483;44.640;7.494;2023-04-15T04:50:09;2.08;;;1.23;;
39956;SDS011;48483;44.640;7.494;2023-04-15T04:52:39;1.75;;;0.90;;
39956;SDS011;48483;44.640;7.494;2023-04-15T04:55:07;5.13;;;2.10;;
39956;SDS011;48483;44.640;7.494;2023-04-15T04:57:35;2.78;;;1.70;;
39956;SDS011;48483;44.640;7.494;2023-04-15T05:00:04;2.58;;;1.10;;
39956;SDS011;48483;44.640;7.494;2023-04-15T05:02:34;4.45;;;1.48;;
39956;SDS011;48483;44.640;7.494;2023-04-15T05:05:02;2.20;;;1.23;;
39956;SDS011;48483;44.640;7.494;2023-04-15T05:07:30;4.88;;;1.83;;
39956;SDS011;48483;44.640;7.494;2023-04-15T05:10:00;2.17;;;1.20;;
39956;SDS011;48483;44.640;7.494;2023-04-15T05:12:27;2.80;;;1.60;;
39956;SDS011;48483;44.640;7.494;2023-04-15T05:14:55;4.53;;;1.80;;
39956;SDS011;48483;44.640;7.494;2023-04-15T05:17:23;5.30;;;2.00;;
39956;SDS011;48483;44.640;7.494;2023-04-15T05:19:51;4.43;;;1.60;;
39956;SDS011;48483;44.640;7.494;2023-04-15T05:22:19;5.72;;;1.85;;
39956;SDS011;48483;44.640;7.494;2023-04-15T05:24:47;2.53;;;1.50;;
39956;SDS011;48483;44.640;7.494;2023-04-15T05:27:16;3.35;;;1.42;;
39956;SDS011;48483;44.640;7.494;2023-04-15T05:29:45;3.88;;;1.40;;
39956;SDS011;48483;44.640;7.494;2023-04-15T05:32:13;3.40;;;1.35;;
39956;SDS011;48483;44.640;7.494;2023-04-15T05:34:40;3.85;;;1.70;;
39956;SDS011;48483;44.640;7.494;2023-04-15T05:37:09;3.20;;;1.27;;
39956;SDS011;48483;44.640;7.494;2023-04-15T05:39:37;4.20;;;1.48;;
39956;SDS011;48483;44.640;7.494;2023-04-15T05:42:05;6.90;;;2.10;;
39956;SDS011;48483;44.640;7.494;2023-04-15T05:44:34;3.50;;;1.38;;
39956;SDS011;48483;44.640;7.494;2023-04-15T05:47:02;4.32;;;1.30;;
39956;SDS011;48483;44.640;7.494;2023-04-15T05:49:30;4.90;;;1.55;;
39956;SDS011;48483;44.640;7.494;2023-04-15T05:51:58;4.13;;;1.50;;
39956;SDS011;48483;44.640;7.494;2023-04-15T05:54:25;5.95;;;1.50;;
39956;SDS011;48483;44.640;7.494;2023-04-15T05:56:54;6.50;;;1.77;;
39956;SDS011;48483;44.640;7.494;2023-04-15T05:59:23;2.28;;;1.52;;
39956;SDS011;48483;44.640;7.494;2023-04-15T06:01:52;2.00;;;1.17;;
39956;SDS011;48483;44.640;7.494;2023-04-15T06:04:20;2.75;;;1.27;;
39956;SDS011;48483;44.640;7.494;2023-04-15T06:06:48;6.70;;;1.67;;
39956;SDS011;48483;44.640;7.494;2023-04-15T06:09:17;3.08;;;1.58;;
39956;SDS011;48483;44.640;7.494;2023-04-15T06:11:44;2.90;;;1.65;;
39956;SDS011;48483;44.640;7.494;2023-04-15T06:14:12;2.58;;;1.33;;
39956;SDS011;48483;44.640;7.494;2023-04-15T06:16:40;4.32;;;1.70;;
39956;SDS011;48483;44.640;7.494;2023-04-15T06:19:09;8.63;;;1.70;;
39956;SDS011;48483;44.640;7.494;2023-04-15T06:21:38;3.53;;;1.02;;
39956;SDS011;48483;44.640;7.494;2023-04-15T06:24:06;3.33;;;1.20;;
39956;SDS011;48483;44.640;7.494;2023-04-15T06:26:34;2.20;;;1.30;;
39956;SDS011;48483;44.640;7.494;2023-04-15T06:29:02;4.15;;;1.67;;
39956;SDS011;48483;44.640;7.494;2023-04-15T06:31:30;7.97;;;1.17;;
39956;SDS011;48483;44.640;7.494;2023-04-15T06:33:58;3.00;;;1.50;;
39956;SDS011;48483;44.640;7.494;2023-04-15T06:36:27;4.35;;;1.50;;
39956;SDS011;48483;44.640;7.494;2023-04-15T06:38:55;2.60;;;1.15;;
39956;SDS011;48483;44.640;7.494;2023-04-15T06:41:23;4.00;;;1.77;;
39956;SDS011;48483;44.640;7.494;2023-04-15T06:43:51;4.57;;;1.38;;
39956;SDS011;48483;44.640;7.494;2023-04-15T06:46:19;3.10;;;1.30;;
39956;SDS011;48483;44.640;7.494;2023-04-15T06:48:47;4.40;;;1.95;;
39956;SDS011;48483;44.640;7.494;2023-04-15T06:51:15;2.70;;;1.60;;
39956;SDS011;48483;44.640;7.494;2023-04-15T06:53:44;3.65;;;1.60;;
39956;SDS011;48483;44.640;7.494;2023-04-15T06:56:12;5.35;;;1.85;;
39956;SDS011;48483;44.640;7.494;2023-04-15T06:58:39;6.18;;;2.55;;
39956;SDS011;48483;44.640;7.494;2023-04-15T07:01:07;6.95;;;1.92;;
39956;SDS011;48483;44.640;7.494;2023-04-15T07:03:35;7.85;;;2.70;;
39956;SDS011;48483;44.640;7.494;2023-04-15T07:06:03;5.38;;;2.28;;
39956;SDS011;48483;44.640;7.494;2023-04-15T07:08:32;9.27;;;2.28;;
39956;SDS011;48483;44.640;7.494;2023-04-15T07:11:02;5.22;;;1.92;;
39956;SDS011;48483;44.640;7.494;2023-04-15T07:13:30;6.85;;;1.52;;
39956;SDS011;48483;44.640;7.494;2023-04-15T07:15:58;5.03;;;1.70;;
39956;SDS011;48483;44.640;7.494;2023-04-15T07:18:26;2.38;;;1.30;;
39956;SDS011;48483;44.640;7.494;2023-04-15T07:20:54;2.00;;;1.15;;
39956;SDS011;48483;44.640;7.494;2023-04-15T07:23:22;3.70;;;1.20;;
39956;SDS011;48483;44.640;7.494;2023-04-15T07:25:50;3.22;;;0.93;;
39956;SDS011;48483;44.640;7.494;2023-04-15T07:28:19;6.72;;;1.65;;
39956;SDS011;48483;44.640;7.494;2023-04-15T07:30:47;4.47;;;2.22;;
39956;SDS011;48483;44.640;7.494;2023-04-15T07:33:15;3.65;;;1.35;;
39956;SDS011;48483;44.640;7.494;2023-04-15T07:35:43;3.83;;;2.03;;
39956;SDS011;48483;44.640;7.494;2023-04-15T07:38:11;4.88;;;1.40;;
39956;SDS011;48483;44.640;7.494;2023-04-15T07:40:39;3.80;;;2.13;;
39956;SDS011;48483;44.640;7.494;2023-04-15T07:43:08;4.57;;;1.40;;
39956;SDS011;48483;44.640;7.494;2023-04-15T07:45:38;4.18;;;1.67;;
39956;SDS011;48483;44.640;7.494;2023-04-15T07:48:06;4.57;;;1.67;;
39956;SDS011;48483;44.640;7.494;2023-04-15T07:50:34;4.55;;;1.80;;
39956;SDS011;48483;44.640;7.494;2023-04-15T07:53:02;4.75;;;1.30;;
39956;SDS011;48483;44.640;7.494;2023-04-15T07:55:30;3.13;;;1.65;;
39956;SDS011;48483;44.640;7.494;2023-04-15T07:57:58;3.88;;;1.40;;
39956;SDS011;48483;44.640;7.494;2023-04-15T08:00:25;5.40;;;1.40;;
39956;SDS011;48483;44.640;7.494;2023-04-15T08:02:55;3.30;;;1.45;;
39956;SDS011;48483;44.640;7.494;2023-04-15T08:05:25;3.92;;;1.25;;
39956;SDS011;48483;44.640;7.494;2023-04-15T08:07:53;5.45;;;1.55;;
39956;SDS011;48483;44.640;7.494;2023-04-15T08:10:21;3.40;;;1.40;;
39956;SDS011;48483;44.640;7.494;2023-04-15T08:12:49;2.30;;;1.13;;
39956;SDS011;48483;44.640;7.494;2023-04-15T08:15:20;2.58;;;1.20;;
39956;SDS011;48483;44.640;7.494;2023-04-15T08:17:48;4.07;;;1.48;;
39956;SDS011;48483;44.640;7.494;2023-04-15T08:20:17;11.70;;;1.50;;
39956;SDS011;48483;44.640;7.494;2023-04-15T08:22:46;3.00;;;1.30;;
39956;SDS011;48483;44.640;7.494;2023-04-15T08:25:17;6.78;;;1.67;;
39956;SDS011;48483;44.640;7.494;2023-04-15T08:30:16;2.95;;;1.02;;
39956;SDS011;48483;44.640;7.494;2023-04-15T08:32:44;2.83;;;1.00;;
39956;SDS011;48483;44.640;7.494;2023-04-15T08:35:15;1.83;;;1.10;;
39956;SDS011;48483;44.640;7.494;2023-04-15T08:37:44;2.70;;;1.17;;
39956;SDS011;48483;44.640;7.494;2023-04-15T08:40:12;5.07;;;1.35;;
39956;SDS011;48483;44.640;7.494;2023-04-15T08:42:41;5.57;;;1.40;;
39956;SDS011;48483;44.640;7.494;2023-04-15T08:45:11;2.88;;;0.93;;
39956;SDS011;48483;44.640;7.494;2023-04-15T08:47:40;3.35;;;1.10;;
39956;SDS011;48483;44.640;7.494;2023-04-15T08:50:11;6.00;;;1.27;;
39956;SDS011;48483;44.640;7.494;2023-04-15T08:52:42;2.70;;;1.08;;
39956;SDS011;48483;44.640;7.494;2023-04-15T08:55:11;3.25;;;1.13;;
39956;SDS011;48483;44.640;7.494;2023-04-15T08:57:40;3.85;;;1.05;;
39956;SDS011;48483;44.640;7.494;2023-04-15T09:00:08;3.33;;;0.80;;
39956;SDS011;48483;44.640;7.494;2023-04-15T09:02:38;1.73;;;1.13;;
39956;SDS011;48483;44.640;7.494;2023-04-15T09:05:07;2.20;;;1.10;;
39956;SDS011;48483;44.640;7.494;2023-04-15T09:07:35;6.38;;;1.83;;
39956;SDS011;48483;44.640;7.494;2023-04-15T09:10:05;2.83;;;1.20;;
39956;SDS011;48483;44.640;7.494;2023-04-15T09:12:34;4.45;;;1.40;;
39956;SDS011;48483;44.640;7.494;2023-04-15T09:15:03;2.42;;;1.23;;
39956;SDS011;48483;44.640;7.494;2023-04-15T09:17:31;3.13;;;1.17;;
39956;SDS011;48483;44.640;7.494;2023-04-15T09:20:07;4.20;;;1.30;;
39956;SDS011;48483;44.640;7.494;2023-04-15T09:22:36;2.95;;;1.35;;
39956;SDS011;48483;44.640;7.494;2023-04-15T09:25:10;2.97;;;1.50;;
39956;SDS011;48483;44.640;7.494;2023-04-15T09:27:54;3.35;;;1.08;;
39956;SDS011;48483;44.640;7.494;2023-04-15T09:30:22;5.07;;;1.10;;
39956;SDS011;48483;44.640;7.494;2023-04-15T09:32:50;2.58;;;1.20;;
39956;SDS011;48483;44.640;7.494;2023-04-15T09:35:20;2.95;;;1.13;;
39956;SDS011;48483;44.640;7.494;2023-04-15T09:37:48;3.53;;;1.10;;
39956;SDS011;48483;44.640;7.494;2023-04-15T09:40:30;2.50;;;1.30;;
39956;SDS011;48483;44.640;7.494;2023-04-15T09:43:00;4.57;;;1.48;;
39956;SDS011;48483;44.640;7.494;2023-04-15T09:45:28;4.88;;;1.25;;
39956;SDS011;48483;44.640;7.494;2023-04-15T09:47:57;5.68;;;1.50;;
39956;SDS011;48483;44.640;7.494;2023-04-15T09:50:27;1.77;;;1.02;;
39956;SDS011;48483;44.640;7.494;2023-04-15T09:52:55;3.17;;;1.25;;
39956;SDS011;48483;44.640;7.494;2023-04-15T09:55:23;3.38;;;1.02;;
39956;SDS011;48483;44.640;7.494;2023-04-15T09:57:52;5.70;;;1.20;;
39956;SDS011;48483;44.640;7.494;2023-04-15T10:00:21;4.22;;;1.10;;
39956;SDS011;48483;44.640;7.494;2023-04-15T10:02:48;5.68;;;1.40;;
39956;SDS011;48483;44.640;7.494;2023-04-15T10:05:17;5.57;;;1.60;;
39956;SDS011;48483;44.640;7.494;2023-04-15T10:07:45;5.32;;;1.45;;
39956;SDS011;48483;44.640;7.494;2023-04-15T10:10:13;3.80;;;1.25;;
39956;SDS011;48483;44.640;7.494;2023-04-15T10:12:41;2.17;;;0.95;;
39956;SDS011;48483;44.640;7.494;2023-04-15T10:15:13;3.93;;;1.13;;
39956;SDS011;48483;44.640;7.494;2023-04-15T10:17:42;4.25;;;1.20;;
39956;SDS011;48483;44.640;7.494;2023-04-15T10:20:11;2.88;;;1.35;;
39956;SDS011;48483;44.640;7.494;2023-04-15T10:22:41;2.97;;;1.40;;
39956;SDS011;48483;44.640;7.494;2023-04-15T10:25:09;4.70;;;2.00;;
39956;SDS011;48483;44.640;7.494;2023-04-15T10:27:38;3.10;;;2.47;;
39956;SDS011;48483;44.640;7.494;2023-04-15T10:30:08;13.77;;;2.40;;
39956;SDS011;48483;44.640;7.494;2023-04-15T10:32:39;3.22;;;1.80;;
39956;SDS011;48483;44.640;7.494;2023-04-15T10:35:07;4.57;;;2.38;;
39956;SDS011;48483;44.640;7.494;2023-04-15T10:37:37;2.95;;;1.40;;
39956;SDS011;48483;44.640;7.494;2023-04-15T10:40:24;2.22;;;1.27;;
39956;SDS011;48483;44.640;7.494;2023-04-15T10:42:58;2.90;;;1.67;;
39956;SDS011;48483;44.640;7.494;2023-04-15T10:45:27;6.13;;;1.50;;
39956;SDS011;48483;44.640;7.494;2023-04-15T10:48:01;2.95;;;1.52;;
39956;SDS011;48483;44.640;7.494;2023-04-15T10:50:31;3.60;;;1.52;;
39956;SDS011;48483;44.640;7.494;2023-04-15T10:53:01;2.67;;;1.70;;
39956;SDS011;48483;44.640;7.494;2023-04-15T10:57:59;4.13;;;1.90;;
39956;SDS011;48483;44.640;7.494;2023-04-15T11:00:28;5.60;;;2.72;;
39956;SDS011;48483;44.640;7.494;2023-04-15T11:02:57;3.97;;;2.35;;
39956;SDS011;48483;44.640;7.494;2023-04-15T11:08:18;7.63;;;3.58;;
39956;SDS011;48483;44.640;7.494;2023-04-15T11:10:50;5.45;;;2.53;;
39956;SDS011;48483;44.640;7.494;2023-04-15T11:13:22;4.88;;;2.38;;
39956;SDS011;48483;44.640;7.494;2023-04-15T11:15:56;8.27;;;2.78;;
39956;SDS011;48483;44.640;7.494;2023-04-15T11:18:31;4.65;;;2.78;;
39956;SDS011;48483;44.640;7.494;2023-04-15T11:21:03;6.90;;;2.05;;
39956;SDS011;48483;44.640;7.494;2023-04-15T11:23:34;14.02;;;3.78;;
39956;SDS011;48483;44.640;7.494;2023-04-15T11:26:04;7.70;;;2.25;;
39956;SDS011;48483;44.640;7.494;2023-04-15T11:28:35;6.50;;;2.10;;
39956;SDS011;48483;44.640;7.494;2023-04-15T11:31:05;5.60;;;1.83;;
39956;SDS011;48483;44.640;7.494;2023-04-15T11:33:34;5.47;;;2.08;;
39956;SDS011;48483;44.640;7.494;2023-04-15T11:36:04;8.48;;;2.13;;
39956;SDS011;48483;44.640;7.494;2023-04-15T11:38:33;6.53;;;1.80;;
39956;SDS011;48483;44.640;7.494;2023-04-15T11:41:01;6.65;;;2.53;;
39956;SDS011;48483;44.640;7.494;2023-04-15T11:43:30;6.53;;;2.13;;
39956;SDS011;48483;44.640;7.494;2023-04-15T11:45:59;5.80;;;2.40;;
39956;SDS011;48483;44.640;7.494;2023-04-15T11:48:28;5.07;;;2.83;;
39956;SDS011;48483;44.640;7.494;2023-04-15T11:50:58;4.13;;;2.28;;
39956;SDS011;48483;44.640;7.494;2023-04-15T11:53:35;4.07;;;2.13;;
39956;SDS011;48483;44.640;7.494;2023-04-15T11:56:04;4.57;;;2.20;;
39956;SDS011;48483;44.640;7.494;2023-04-15T11:58:32;8.20;;;2.40;;
39956;SDS011;48483;44.640;7.494;2023-04-15T12:01:00;4.63;;;2.38;;
39956;SDS011;48483;44.640;7.494;2023-04-15T12:03:28;6.55;;;2.00;;
39956;SDS011;48483;44.640;7.494;2023-04-15T12:06:02;7.82;;;2.20;;
39956;SDS011;48483;44.640;7.494;2023-04-15T12:11:29;5.07;;;2.47;;
39956;SDS011;48483;44.640;7.494;2023-04-15T12:14:20;4.57;;;2.00;;
39956;SDS011;48483;44.640;7.494;2023-04-15T12:16:50;5.20;;;2.22;;
39956;SDS011;48483;44.640;7.494;2023-04-15T12:19:21;4.85;;;2.20;;
39956;SDS011;48483;44.640;7.494;2023-04-15T12:21:50;7.82;;;2.97;;
39956;SDS011;48483;44.640;7.494;2023-04-15T12:24:20;4.60;;;2.08;;
39956;SDS011;48483;44.640;7.494;2023-04-15T12:26:48;4.55;;;2.28;;
39956;SDS011;48483;44.640;7.494;2023-04-15T12:29:16;2.75;;;1.55;;
39956;SDS011;48483;44.640;7.494;2023-04-15T12:31:47;11.43;;;3.78;;
39956;SDS011;48483;44.640;7.494;2023-04-15T12:34:23;3.03;;;1.52;;
39956;SDS011;48483;44.640;7.494;2023-04-15T12:36:52;3.95;;;1.75;;
39956;SDS011;48483;44.640;7.494;2023-04-15T12:39:22;3.20;;;1.83;;
39956;SDS011;48483;44.640;7.494;2023-04-15T12:41:49;5.90;;;2.23;;
39956;SDS011;48483;44.640;7.494;2023-04-15T12:44:15;5.95;;;1.60;;
39956;SDS011;48483;44.640;7.494;2023-04-15T12:46:42;3.85;;;2.00;;
39956;SDS011;48483;44.640;7.494;2023-04-15T12:49:09;3.58;;;1.80;;
39956;SDS011;48483;44.640;7.494;2023-04-15T12:51:35;5.15;;;2.30;;
39956;SDS011;48483;44.640;7.494;2023-04-15T12:54:02;3.92;;;2.05;;
39956;SDS011;48483;44.640;7.494;2023-04-15T12:56:30;4.68;;;2.03;;
39956;SDS011;48483;44.640;7.494;2023-04-15T12:58:57;5.80;;;2.40;;
39956;SDS011;48483;44.640;7.494;2023-04-15T13:01:24;6.53;;;3.30;;
39956;SDS011;48483;44.640;7.494;2023-04-15T13:03:50;4.45;;;2.00;;
39956;SDS011;48483;44.640;7.494;2023-04-15T13:06:17;6.80;;;2.00;;
39956;SDS011;48483;44.640;7.494;2023-04-15T13:08:43;7.55;;;2.28;;
39956;SDS011;48483;44.640;7.494;2023-04-15T13:11:10;7.07;;;3.00;;
39956;SDS011;48483;44.640;7.494;2023-04-15T13:13:38;6.25;;;2.80;;
39956;SDS011;48483;44.640;7.494;2023-04-15T13:16:05;6.32;;;3.25;;
39956;SDS011;48483;44.640;7.494;2023-04-15T13:18:32;6.53;;;2.88;;
39956;SDS011;48483;44.640;7.494;2023-04-15T13:20:59;5.93;;;3.45;;
39956;SDS011;48483;44.640;7.494;2023-04-15T13:23:26;5.07;;;2.83;;
39956;SDS011;48483;44.640;7.494;2023-04-15T13:25:53;10.02;;;3.63;;
39956;SDS011;48483;44.640;7.494;2023-04-15T13:28:19;8.40;;;3.85;;
39956;SDS011;48483;44.640;7.494;2023-04-15T13:30:47;4.47;;;2.67;;
39956;SDS011;48483;44.640;7.494;2023-04-15T13:33:15;7.45;;;3.30;;
39956;SDS011;48483;44.640;7.494;2023-04-15T13:35:42;5.88;;;2.67;;
39956;SDS011;48483;44.640;7.494;2023-04-15T13:38:09;5.15;;;2.75;;
39956;SDS011;48483;44.640;7.494;2023-04-15T13:40:35;4.45;;;2.85;;
39956;SDS011;48483;44.640;7.494;2023-04-15T13:43:04;3.60;;;2.65;;
39956;SDS011;48483;44.640;7.494;2023-04-15T13:45:31;7.28;;;3.78;;
39956;SDS011;48483;44.640;7.494;2023-04-15T13:47:59;6.45;;;2.63;;
39956;SDS011;48483;44.640;7.494;2023-04-15T13:50:26;6.80;;;3.67;;
39956;SDS011;48483;44.640;7.494;2023-04-15T13:52:53;3.80;;;2.20;;
39956;SDS011;48483;44.640;7.494;2023-04-15T13:55:19;4.10;;;1.85;;
39956;SDS011;48483;44.640;7.494;2023-04-15T13:57:46;5.72;;;1.98;;
39956;SDS011;48483;44.640;7.494;2023-04-15T14:00:12;4.80;;;1.95;;
39956;SDS011;48483;44.640;7.494;2023-04-15T14:02:40;4.88;;;2.08;;
39956;SDS011;48483;44.640;7.494;2023-04-15T14:05:09;9.30;;;1.77;;
39956;SDS011;48483;44.640;7.494;2023-04-15T14:07:36;3.78;;;2.13;;
39956;SDS011;48483;44.640;7.494;2023-04-15T14:10:02;2.67;;;1.73;;
39956;SDS011;48483;44.640;7.494;2023-04-15T14:12:29;3.22;;;1.70;;
39956;SDS011;48483;44.640;7.494;2023-04-15T14:14:56;6.35;;;2.38;;
39956;SDS011;48483;44.640;7.494;2023-04-15T14:17:22;3.50;;;1.88;;
39956;SDS011;48483;44.640;7.494;2023-04-15T14:19:49;6.18;;;1.75;;
39956;SDS011;48483;44.640;7.494;2023-04-15T14:22:17;4.03;;;1.40;;
39956;SDS011;48483;44.640;7.494;2023-04-15T14:24:44;4.45;;;1.70;;
39956;SDS011;48483;44.640;7.494;2023-04-15T14:27:10;5.20;;;2.03;;
39956;SDS011;48483;44.640;7.494;2023-04-15T14:29:37;6.95;;;1.63;;
39956;SDS011;48483;44.640;7.494;2023-04-15T14:32:04;3.90;;;1.77;;
39956;SDS011;48483;44.640;7.494;2023-04-15T14:34:31;7.93;;;1.65;;
39956;SDS011;48483;44.640;7.494;2023-04-15T14:36:58;3.95;;;1.42;;
39956;SDS011;48483;44.640;7.494;2023-04-15T14:39:26;2.67;;;1.33;;
39956;SDS011;48483;44.640;7.494;2023-04-15T14:41:52;7.40;;;1.65;;
39956;SDS011;48483;44.640;7.494;2023-04-15T14:44:20;4.70;;;1.40;;
39956;SDS011;48483;44.640;7.494;2023-04-15T14:46:46;3.85;;;1.52;;
39956;SDS011;48483;44.640;7.494;2023-04-15T14:49:15;3.20;;;1.25;;
39956;SDS011;48483;44.640;7.494;2023-04-15T14:51:42;4.05;;;1.10;;
39956;SDS011;48483;44.640;7.494;2023-04-15T14:54:09;4.90;;;1.40;;
39956;SDS011;48483;44.640;7.494;2023-04-15T14:56:37;7.88;;;1.77;;
39956;SDS011;48483;44.640;7.494;2023-04-15T14:59:03;2.45;;;1.15;;
39956;SDS011;48483;44.640;7.494;2023-04-15T15:01:30;6.57;;;2.10;;
39956;SDS011;48483;44.640;7.494;2023-04-15T15:03:58;9.98;;;1.50;;
39956;SDS011;48483;44.640;7.494;2023-04-15T15:06:24;4.25;;;1.25;;
39956;SDS011;48483;44.640;7.494;2023-04-15T15:08:51;4.53;;;1.55;;
39956;SDS011;48483;44.640;7.494;2023-04-15T15:11:17;3.83;;;1.40;;